sensor_id;sensor_type;location;lat;lon;timestamp;P1;durP1;ratioP1;P2;durP2;ratioP2
19621;SDS011;9958;33.196;-97.114;2023-03-01T00:01:18;0.80;;;0.50;;
19621;SDS011;9958;33.196;-97.114;2023-03-01T00:03:49;0.50;;;0.50;;
19621;SDS011;9958;33.196;-97.114;2023-03-01T00:06:20;1.38;;;0.40;;
19621;SDS011;9958;33.196;-97.114;2023-03-01T00:08:49;0.50;;;0.40;;
19621;SDS011;9958;33.196;-97.114;2023-03-01T00:11:18;1.60;;;0.73;;
19621;SDS011;9958;33.196;-97.114;2023-03-01T00:13:48;0.60;;;0.60;;
19621;SDS011;9958;33.196;-97.114;2023-03-01T00:16:19;6.22;;;0.73;;
19621;SDS011;9958;33.196;-97.114;2023-03-01T00:18:52;2.40;;;0.50;;
19621;SDS011;9958;33.196;-97.114;2023-03-01T00:21:23;1.17;;;0.68;;
19621;SDS011;9958;33.196;-97.114;2023-03-01T00:23:52;0.50;;;0.50;;
19621;SDS011;9958;33.196;-97.114;2023-03-01T00:26:23;3.08;;;0.77;;
19621;SDS011;9958;33.196;-97.114;2023-03-01T00:28:53;2.92;;;0.77;;
19621;SDS011;9958;33.196;-97.114;2023-03-01T00:31:23;2.13;;;1.10;;
19621;SDS011;9958;33.196;-97.114;2023-03-01T00:33:52;2.22;;;1.60;;
19621;SDS011;9958;33.196;-97.114;2023-03-01T00:36:24;1.70;;;1.60;;
19621;SDS011;9958;33.196;-97.114;2023-03-01T00:38:53;4.45;;;3.40;;
19621;SDS011;9958;33.196;-97.114;2023-03-01T00:41:22;5.10;;;3.50;;
19621;SDS011;9958;33.196;-97.114;2023-03-01T00:43:52;3.45;;;1.90;;
19621;SDS011;9958;33.196;-97.114;2023-03-01T00:46:22;5.10;;;3.17;;
19621;SDS011;9958;33.196;-97.114;2023-03-01T00:48:51;1.70;;;1.50;;
19621;SDS011;9958;33.196;-97.114;2023-03-01T00:51:21;7.97;;;3.17;;
19621;SDS011;9958;33.196;-97.114;2023-03-01T00:53:52;2.95;;;2.28;;
19621;SDS011;9958;33.196;-97.114;2023-03-01T00:56:22;3.03;;;1.95;;
19621;SDS011;9958;33.196;-97.114;2023-03-01T00:58:51;3.00;;;2.08;;
19621;SDS011;9958;33.196;-97.114;2023-03-01T01:01:20;2.55;;;1.65;;
19621;SDS011;9958;33.196;-97.114;2023-03-01T01:03:51;2.03;;;1.83;;
19621;SDS011;9958;33.196;-97.114;2023-03-01T01:06:21;4.75;;;1.60;;
19621;SDS011;9958;33.196;-97.114;2023-03-01T01:08:52;5.03;;;1.60;;
19621;SDS011;9958;33.196;-97.114;2023-03-01T01:11:23;1.08;;;0.95;;
19621;SDS011;9958;33.196;-97.114;2023-03-01T01:13:52;2.78;;;1.25;;
19621;SDS011;9958;33.196;-97.114;2023-03-01T01:16:22;3.22;;;1.15;;
19621;SDS011;9958;33.196;-97.114;2023-03-01T01:18:52;2.10;;;0.90;;
19621;SDS011;9958;33.196;-97.114;2023-03-01T01:21:22;1.95;;;0.93;;
19621;SDS011;9958;33.196;-97.114;2023-03-01T01:23:53;2.50;;;0.85;;
19621;SDS011;9958;33.196;-97.114;2023-03-01T01:26:22;1.67;;;0.82;;
19621;SDS011;9958;33.196;-97.114;2023-03-01T01:28:55;1.10;;;0.75;;
19621;SDS011;9958;33.196;-97.114;2023-03-01T01:31:24;1.50;;;0.85;;
19621;SDS011;9958;33.196;-97.114;2023-03-01T01:33:54;0.80;;;0.77;;
19621;SDS011;9958;33.196;-97.114;2023-03-01T01:36:23;1.55;;;0.82;;
19621;SDS011;9958;33.196;-97.114;2023-03-01T01:38:53;4.25;;;0.82;;
19621;SDS011;9958;33.196;-97.114;2023-03-01T01:41:22;2.38;;;0.88;;
19621;SDS011;9958;33.196;-97.114;2023-03-01T01:46:40;2.80;;;0.85;;
19621;SDS011;9958;33.196;-97.114;2023-03-01T01:49:12;1.60;;;0.95;;
19621;SDS011;9958;33.196;-97.114;2023-03-01T01:51:51;0.93;;;0.82;;
19621;SDS011;9958;33.196;-97.114;2023-03-01T01:54:29;1.67;;;1.15;;
19621;SDS011;9958;33.196;-97.114;2023-03-01T01:57:06;1.48;;;0.98;;
19621;SDS011;9958;33.196;-97.114;2023-03-01T01:59:38;2.00;;;1.25;;
19621;SDS011;9958;33.196;-97.114;2023-03-01T02:02:09;1.58;;;1.48;;
19621;SDS011;9958;33.196;-97.114;2023-03-01T02:04:39;1.10;;;1.02;;
19621;SDS011;9958;33.196;-97.114;2023-03-01T02:07:09;0.90;;;0.80;;
19621;SDS011;9958;33.196;-97.114;2023-03-01T02:09:43;3.83;;;1.00;;
19621;SDS011;9958;33.196;-97.114;2023-03-01T02:12:15;2.70;;;0.85;;
19621;SDS011;9958;33.196;-97.114;2023-03-01T02:14:45;0.88;;;0.60;;
19621;SDS011;9958;33.196;-97.114;2023-03-01T02:17:14;0.90;;;0.90;;
19621;SDS011;9958;33.196;-97.114;2023-03-01T02:19:47;4.15;;;0.82;;
19621;SDS011;9958;33.196;-97.114;2023-03-01T02:22:27;2.35;;;0.82;;
19621;SDS011;9958;33.196;-97.114;2023-03-01T02:25:03;2.25;;;0.90;;
19621;SDS011;9958;33.196;-97.114;2023-03-01T02:27:47;2.65;;;0.95;;
19621;SDS011;9958;33.196;-97.114;2023-03-01T02:30:24;1.45;;;1.20;;
19621;SDS011;9958;33.196;-97.114;2023-03-01T02:32:53;0.60;;;0.60;;
19621;SDS011;9958;33.196;-97.114;2023-03-01T02:35:28;2.50;;;1.42;;
19621;SDS011;9958;33.196;-97.114;2023-03-01T02:37:59;1.73;;;1.10;;
19621;SDS011;9958;33.196;-97.114;2023-03-01T02:40:29;3.50;;;1.10;;
19621;SDS011;9958;33.196;-97.114;2023-03-01T02:43:00;2.40;;;1.10;;
19621;SDS011;9958;33.196;-97.114;2023-03-01T02:45:33;1.25;;;1.17;;
19621;SDS011;9958;33.196;-97.114;2023-03-01T02:48:01;3.53;;;0.93;;
19621;SDS011;9958;33.196;-97.114;2023-03-01T02:50:46;1.40;;;1.10;;
19621;SDS011;9958;33.196;-97.114;2023-03-01T02:53:27;1.85;;;0.77;;
19621;SDS011;9958;33.196;-97.114;2023-03-01T02:56:02;0.65;;;0.55;;
19621;SDS011;9958;33.196;-97.114;2023-03-01T02:58:31;2.42;;;0.73;;
19621;SDS011;9958;33.196;-97.114;2023-03-01T03:01:07;1.23;;;0.77;;
19621;SDS011;9958;33.196;-97.114;2023-03-01T03:03:36;3.30;;;1.08;;
19621;SDS011;9958;33.196;-97.114;2023-03-01T03:06:04;3.08;;;1.40;;
19621;SDS011;9958;33.196;-97.114;2023-03-01T03:08:32;2.30;;;0.85;;
19621;SDS011;9958;33.196;-97.114;2023-03-01T03:11:01;3.97;;;0.90;;
19621;SDS011;9958;33.196;-97.114;2023-03-01T03:13:29;1.02;;;0.90;;
19621;SDS011;9958;33.196;-97.114;2023-03-01T03:15:57;3.50;;;1.65;;
19621;SDS011;9958;33.196;-97.114;2023-03-01T03:18:27;1.35;;;0.90;;
19621;SDS011;9958;33.196;-97.114;2023-03-01T03:20:56;0.73;;;0.60;;
19621;SDS011;9958;33.196;-97.114;2023-03-01T03:23:26;1.95;;;1.20;;
19621;SDS011;9958;33.196;-97.114;2023-03-01T03:25:55;2.83;;;1.20;;
19621;SDS011;9958;33.196;-97.114;2023-03-01T03:28:23;2.92;;;1.15;;
19621;SDS011;9958;33.196;-97.114;2023-03-01T03:30:52;3.40;;;1.10;;
19621;SDS011;9958;33.196;-97.114;2023-03-01T03:33:20;3.85;;;1.23;;
19621;SDS011;9958;33.196;-97.114;2023-03-01T03:35:50;1.23;;;1.10;;
19621;SDS011;9958;33.196;-97.114;2023-03-01T03:38:19;1.75;;;1.23;;
19621;SDS011;9958;33.196;-97.114;2023-03-01T03:40:48;1.23;;;1.10;;
19621;SDS011;9958;33.196;-97.114;2023-03-01T03:43:19;1.60;;;1.40;;
19621;SDS011;9958;33.196;-97.114;2023-03-01T03:45:49;1.33;;;1.20;;
19621;SDS011;9958;33.196;-97.114;2023-03-01T03:48:19;3.75;;;1.35;;
19621;SDS011;9958;33.196;-97.114;2023-03-01T03:50:48;1.98;;;1.40;;
19621;SDS011;9958;33.196;-97.114;2023-03-01T03:53:19;3.33;;;1.50;;
19621;SDS011;9958;33.196;-97.114;2023-03-01T03:55:49;2.42;;;1.30;;
19621;SDS011;9958;33.196;-97.114;2023-03-01T03:58:18;3.40;;;1.42;;
19621;SDS011;9958;33.196;-97.114;2023-03-01T04:00:48;1.80;;;1.40;;
19621;SDS011;9958;33.196;-97.114;2023-03-01T04:03:18;6.55;;;1.80;;
19621;SDS011;9958;33.196;-97.114;2023-03-01T04:05:47;10.30;;;1.67;;
19621;SDS011;9958;33.196;-97.114;2023-03-01T04:08:19;2.83;;;1.48;;
19621;SDS011;9958;33.196;-97.114;2023-03-01T04:10:49;6.97;;;1.75;;
19621;SDS011;9958;33.196;-97.114;2023-03-01T04:13:19;3.00;;;1.60;;
19621;SDS011;9958;33.196;-97.114;2023-03-01T04:15:50;5.75;;;1.83;;
19621;SDS011;9958;33.196;-97.114;2023-03-01T04:18:19;4.10;;;1.80;;
19621;SDS011;9958;33.196;-97.114;2023-03-01T04:20:50;5.43;;;2.00;;
19621;SDS011;9958;33.196;-97.114;2023-03-01T04:23:22;5.38;;;1.60;;
19621;SDS011;9958;33.196;-97.114;2023-03-01T04:25:51;5.70;;;1.67;;
19621;SDS011;9958;33.196;-97.114;2023-03-01T04:28:21;4.80;;;1.98;;
19621;SDS011;9958;33.196;-97.114;2023-03-01T04:30:51;8.05;;;2.08;;
19621;SDS011;9958;33.196;-97.114;2023-03-01T04:33:20;4.57;;;1.90;;
19621;SDS011;9958;33.196;-97.114;2023-03-01T04:35:48;4.32;;;1.65;;
19621;SDS011;9958;33.196;-97.114;2023-03-01T04:38:17;3.53;;;2.00;;
19621;SDS011;9958;33.196;-97.114;2023-03-01T04:40:48;5.03;;;1.73;;
19621;SDS011;9958;33.196;-97.114;2023-03-01T04:43:16;2.65;;;1.77;;
19621;SDS011;9958;33.196;-97.114;2023-03-01T04:45:44;2.72;;;1.98;;
19621;SDS011;9958;33.196;-97.114;2023-03-01T04:48:13;5.68;;;1.88;;
19621;SDS011;9958;33.196;-97.114;2023-03-01T04:50:41;3.40;;;1.98;;
19621;SDS011;9958;33.196;-97.114;2023-03-01T04:53:09;8.25;;;2.15;;
19621;SDS011;9958;33.196;-97.114;2023-03-01T04:55:38;4.65;;;2.10;;
19621;SDS011;9958;33.196;-97.114;2023-03-01T04:58:07;5.05;;;2.00;;
19621;SDS011;9958;33.196;-97.114;2023-03-01T05:00:36;6.90;;;2.25;;
19621;SDS011;9958;33.196;-97.114;2023-03-01T05:03:04;3.50;;;1.92;;
19621;SDS011;9958;33.196;-97.114;2023-03-01T05:05:33;5.97;;;2.28;;
19621;SDS011;9958;33.196;-97.114;2023-03-01T05:08:04;4.53;;;2.53;;
19621;SDS011;9958;33.196;-97.114;2023-03-01T05:10:35;4.90;;;2.15;;
19621;SDS011;9958;33.196;-97.114;2023-03-01T05:13:04;7.13;;;2.47;;
19621;SDS011;9958;33.196;-97.114;2023-03-01T05:15:34;7.07;;;2.97;;
19621;SDS011;9958;33.196;-97.114;2023-03-01T05:18:02;5.75;;;2.25;;
19621;SDS011;9958;33.196;-97.114;2023-03-01T05:20:36;5.45;;;2.17;;
19621;SDS011;9958;33.196;-97.114;2023-03-01T05:23:05;4.88;;;2.33;;
19621;SDS011;9958;33.196;-97.114;2023-03-01T05:25:34;3.63;;;2.20;;
19621;SDS011;9958;33.196;-97.114;2023-03-01T05:28:06;2.33;;;1.85;;
19621;SDS011;9958;33.196;-97.114;2023-03-01T05:30:38;8.02;;;2.83;;
19621;SDS011;9958;33.196;-97.114;2023-03-01T05:33:07;6.88;;;2.85;;
19621;SDS011;9958;33.196;-97.114;2023-03-01T05:35:39;6.45;;;2.30;;
19621;SDS011;9958;33.196;-97.114;2023-03-01T05:38:08;7.97;;;2.45;;
19621;SDS011;9958;33.196;-97.114;2023-03-01T05:40:38;6.05;;;2.38;;
19621;SDS011;9958;33.196;-97.114;2023-03-01T05:43:07;5.15;;;2.30;;
19621;SDS011;9958;33.196;-97.114;2023-03-01T05:45:36;6.68;;;2.80;;
19621;SDS011;9958;33.196;-97.114;2023-03-01T05:48:07;5.72;;;2.63;;
19621;SDS011;9958;33.196;-97.114;2023-03-01T05:50:38;4.38;;;2.50;;
19621;SDS011;9958;33.196;-97.114;2023-03-01T05:53:07;6.88;;;2.53;;
19621;SDS011;9958;33.196;-97.114;2023-03-01T05:55:38;3.67;;;2.78;;
19621;SDS011;9958;33.196;-97.114;2023-03-01T05:58:07;4.80;;;2.47;;
19621;SDS011;9958;33.196;-97.114;2023-03-01T06:00:41;7.75;;;2.97;;
19621;SDS011;9958;33.196;-97.114;2023-03-01T06:03:10;4.32;;;2.53;;
19621;SDS011;9958;33.196;-97.114;2023-03-01T06:05:40;5.10;;;2.30;;
19621;SDS011;9958;33.196;-97.114;2023-03-01T06:08:09;5.15;;;2.50;;
19621;SDS011;9958;33.196;-97.114;2023-03-01T06:10:38;7.28;;;2.20;;
19621;SDS011;9958;33.196;-97.114;2023-03-01T06:13:06;4.18;;;2.28;;
19621;SDS011;9958;33.196;-97.114;2023-03-01T06:15:34;5.35;;;2.50;;
19621;SDS011;9958;33.196;-97.114;2023-03-01T06:18:04;8.35;;;2.90;;
19621;SDS011;9958;33.196;-97.114;2023-03-01T06:20:33;6.28;;;2.80;;
19621;SDS011;9958;33.196;-97.114;2023-03-01T06:23:01;6.82;;;2.63;;
19621;SDS011;9958;33.196;-97.114;2023-03-01T06:25:29;4.78;;;2.70;;
19621;SDS011;9958;33.196;-97.114;2023-03-01T06:27:57;6.75;;;2.20;;
19621;SDS011;9958;33.196;-97.114;2023-03-01T06:30:26;6.22;;;2.80;;
19621;SDS011;9958;33.196;-97.114;2023-03-01T06:32:55;7.50;;;2.63;;
19621;SDS011;9958;33.196;-97.114;2023-03-01T06:35:28;6.68;;;2.80;;
19621;SDS011;9958;33.196;-97.114;2023-03-01T06:37:57;6.15;;;2.70;;
19621;SDS011;9958;33.196;-97.114;2023-03-01T06:40:26;5.05;;;2.60;;
19621;SDS011;9958;33.196;-97.114;2023-03-01T06:42:55;5.40;;;2.65;;
19621;SDS011;9958;33.196;-97.114;2023-03-01T06:45:23;4.85;;;2.50;;
19621;SDS011;9958;33.196;-97.114;2023-03-01T06:47:52;6.90;;;2.92;;
19621;SDS011;9958;33.196;-97.114;2023-03-01T06:50:29;6.30;;;2.63;;
19621;SDS011;9958;33.196;-97.114;2023-03-01T06:52:58;5.45;;;2.88;;
19621;SDS011;9958;33.196;-97.114;2023-03-01T06:55:26;6.07;;;2.72;;
19621;SDS011;9958;33.196;-97.114;2023-03-01T06:57:55;5.28;;;3.80;;
19621;SDS011;9958;33.196;-97.114;2023-03-01T07:00:24;9.48;;;3.67;;
19621;SDS011;9958;33.196;-97.114;2023-03-01T07:02:53;4.45;;;2.95;;
19621;SDS011;9958;33.196;-97.114;2023-03-01T07:05:21;5.75;;;2.97;;
19621;SDS011;9958;33.196;-97.114;2023-03-01T07:07:51;6.40;;;2.75;;
19621;SDS011;9958;33.196;-97.114;2023-03-01T07:10:21;10.55;;;2.80;;
19621;SDS011;9958;33.196;-97.114;2023-03-01T07:12:50;8.98;;;3.65;;
19621;SDS011;9958;33.196;-97.114;2023-03-01T07:15:21;11.20;;;3.30;;
19621;SDS011;9958;33.196;-97.114;2023-03-01T07:17:49;6.40;;;2.88;;
19621;SDS011;9958;33.196;-97.114;2023-03-01T07:20:18;4.88;;;3.13;;
19621;SDS011;9958;33.196;-97.114;2023-03-01T07:22:51;6.72;;;3.15;;
19621;SDS011;9958;33.196;-97.114;2023-03-01T07:25:20;5.47;;;3.17;;
19621;SDS011;9958;33.196;-97.114;2023-03-01T07:27:49;4.88;;;3.38;;
19621;SDS011;9958;33.196;-97.114;2023-03-01T07:30:18;10.45;;;3.92;;
19621;SDS011;9958;33.196;-97.114;2023-03-01T07:32:47;4.95;;;3.53;;
19621;SDS011;9958;33.196;-97.114;2023-03-01T07:35:15;4.90;;;3.60;;
19621;SDS011;9958;33.196;-97.114;2023-03-01T07:37:44;5.05;;;3.28;;
19621;SDS011;9958;33.196;-97.114;2023-03-01T07:40:14;8.65;;;3.70;;
19621;SDS011;9958;33.196;-97.114;2023-03-01T07:42:42;6.55;;;3.92;;
19621;SDS011;9958;33.196;-97.114;2023-03-01T07:45:10;7.50;;;3.70;;
19621;SDS011;9958;33.196;-97.114;2023-03-01T07:47:40;12.30;;;4.72;;
19621;SDS011;9958;33.196;-97.114;2023-03-01T07:50:09;7.75;;;3.83;;
19621;SDS011;9958;33.196;-97.114;2023-03-01T07:52:38;7.63;;;4.47;;
19621;SDS011;9958;33.196;-97.114;2023-03-01T07:55:07;6.32;;;4.38;;
19621;SDS011;9958;33.196;-97.114;2023-03-01T07:57:37;10.02;;;4.22;;
19621;SDS011;9958;33.196;-97.114;2023-03-01T08:00:06;10.63;;;4.55;;
19621;SDS011;9958;33.196;-97.114;2023-03-01T08:02:37;9.93;;;5.03;;
19621;SDS011;9958;33.196;-97.114;2023-03-01T08:05:07;7.47;;;4.95;;
19621;SDS011;9958;33.196;-97.114;2023-03-01T08:07:36;7.47;;;4.90;;
19621;SDS011;9958;33.196;-97.114;2023-03-01T08:10:05;6.80;;;4.90;;
19621;SDS011;9958;33.196;-97.114;2023-03-01T08:12:33;6.80;;;5.45;;
19621;SDS011;9958;33.196;-97.114;2023-03-01T08:15:03;10.55;;;5.55;;
19621;SDS011;9958;33.196;-97.114;2023-03-01T08:17:32;8.07;;;4.97;;
19621;SDS011;9958;33.196;-97.114;2023-03-01T08:20:01;7.13;;;5.32;;
19621;SDS011;9958;33.196;-97.114;2023-03-01T08:22:31;13.30;;;5.78;;
19621;SDS011;9958;33.196;-97.114;2023-03-01T08:24:59;10.10;;;5.82;;
19621;SDS011;9958;33.196;-97.114;2023-03-01T08:27:28;9.80;;;6.07;;
19621;SDS011;9958;33.196;-97.114;2023-03-01T08:29:56;13.18;;;6.22;;
19621;SDS011;9958;33.196;-97.114;2023-03-01T08:32:26;9.32;;;5.50;;
19621;SDS011;9958;33.196;-97.114;2023-03-01T08:34:54;6.95;;;5.10;;
19621;SDS011;9958;33.196;-97.114;2023-03-01T08:37:23;7.75;;;5.63;;
19621;SDS011;9958;33.196;-97.114;2023-03-01T08:39:53;9.40;;;6.30;;
19621;SDS011;9958;33.196;-97.114;2023-03-01T08:42:21;10.57;;;5.97;;
19621;SDS011;9958;33.196;-97.114;2023-03-01T08:44:50;9.10;;;5.93;;
19621;SDS011;9958;33.196;-97.114;2023-03-01T08:47:18;10.40;;;6.30;;
19621;SDS011;9958;33.196;-97.114;2023-03-01T08:49:48;11.13;;;6.95;;
19621;SDS011;9958;33.196;-97.114;2023-03-01T08:52:18;11.82;;;6.57;;
19621;SDS011;9958;33.196;-97.114;2023-03-01T08:54:47;14.43;;;6.60;;
19621;SDS011;9958;33.196;-97.114;2023-03-01T08:57:15;10.93;;;6.22;;
19621;SDS011;9958;33.196;-97.114;2023-03-01T08:59:44;10.48;;;6.60;;
19621;SDS011;9958;33.196;-97.114;2023-03-01T09:02:16;16.05;;;7.13;;
19621;SDS011;9958;33.196;-97.114;2023-03-01T09:04:45;10.60;;;6.47;;
19621;SDS011;9958;33.196;-97.114;2023-03-01T09:07:15;10.50;;;6.90;;
19621;SDS011;9958;33.196;-97.114;2023-03-01T09:09:44;14.23;;;7.18;;
19621;SDS011;9958;33.196;-97.114;2023-03-01T09:12:12;14.32;;;7.18;;
19621;SDS011;9958;33.196;-97.114;2023-03-01T09:14:40;11.77;;;7.13;;
19621;SDS011;9958;33.196;-97.114;2023-03-01T09:17:09;8.57;;;6.40;;
19621;SDS011;9958;33.196;-97.114;2023-03-01T09:19:37;9.70;;;6.68;;
19621;SDS011;9958;33.196;-97.114;2023-03-01T09:22:07;8.35;;;6.63;;
19621;SDS011;9958;33.196;-97.114;2023-03-01T09:24:35;9.70;;;6.75;;
19621;SDS011;9958;33.196;-97.114;2023-03-01T09:27:04;14.10;;;7.05;;
19621;SDS011;9958;33.196;-97.114;2023-03-01T09:29:34;11.65;;;7.25;;
19621;SDS011;9958;33.196;-97.114;2023-03-01T09:32:05;14.30;;;6.78;;
19621;SDS011;9958;33.196;-97.114;2023-03-01T09:34:33;10.35;;;7.60;;
19621;SDS011;9958;33.196;-97.114;2023-03-01T09:37:24;12.27;;;6.80;;
19621;SDS011;9958;33.196;-97.114;2023-03-01T09:39:53;11.38;;;7.13;;
19621;SDS011;9958;33.196;-97.114;2023-03-01T09:42:21;9.73;;;7.50;;
19621;SDS011;9958;33.196;-97.114;2023-03-01T09:44:51;11.13;;;7.88;;
19621;SDS011;9958;33.196;-97.114;2023-03-01T09:47:24;14.35;;;7.88;;
19621;SDS011;9958;33.196;-97.114;2023-03-01T09:49:58;11.98;;;7.35;;
19621;SDS011;9958;33.196;-97.114;2023-03-01T09:52:36;14.25;;;7.20;;
19621;SDS011;9958;33.196;-97.114;2023-03-01T09:55:09;13.07;;;7.45;;
19621;SDS011;9958;33.196;-97.114;2023-03-01T09:57:42;14.90;;;7.55;;
19621;SDS011;9958;33.196;-97.114;2023-03-01T10:00:17;10.73;;;7.28;;
19621;SDS011;9958;33.196;-97.114;2023-03-01T10:02:56;17.88;;;8.07;;
19621;SDS011;9958;33.196;-97.114;2023-03-01T10:05:37;14.45;;;7.47;;
19621;SDS011;9958;33.196;-97.114;2023-03-01T10:08:23;10.50;;;7.22;;
19621;SDS011;9958;33.196;-97.114;2023-03-01T10:10:58;13.80;;;7.57;;
19621;SDS011;9958;33.196;-97.114;2023-03-01T10:13:29;14.57;;;7.80;;
19621;SDS011;9958;33.196;-97.114;2023-03-01T10:16:03;9.88;;;6.97;;
19621;SDS011;9958;33.196;-97.114;2023-03-01T10:18:38;13.13;;;7.80;;
19621;SDS011;9958;33.196;-97.114;2023-03-01T10:21:12;11.93;;;7.13;;
19621;SDS011;9958;33.196;-97.114;2023-03-01T10:23:44;18.20;;;7.93;;
19621;SDS011;9958;33.196;-97.114;2023-03-01T10:29:07;13.45;;;7.93;;
19621;SDS011;9958;33.196;-97.114;2023-03-01T10:31:38;13.75;;;7.47;;
19621;SDS011;9958;33.196;-97.114;2023-03-01T10:34:10;14.40;;;7.68;;
19621;SDS011;9958;33.196;-97.114;2023-03-01T10:36:40;12.43;;;8.23;;
19621;SDS011;9958;33.196;-97.114;2023-03-01T10:39:17;10.02;;;7.47;;
19621;SDS011;9958;33.196;-97.114;2023-03-01T10:41:58;15.10;;;9.02;;
19621;SDS011;9958;33.196;-97.114;2023-03-01T10:44:41;18.88;;;8.23;;
19621;SDS011;9958;33.196;-97.114;2023-03-01T10:47:18;15.00;;;8.25;;
19621;SDS011;9958;33.196;-97.114;2023-03-01T10:49:52;14.45;;;9.15;;
19621;SDS011;9958;33.196;-97.114;2023-03-01T10:52:23;14.15;;;9.60;;
19621;SDS011;9958;33.196;-97.114;2023-03-01T10:54:55;10.07;;;7.15;;
19621;SDS011;9958;33.196;-97.114;2023-03-01T10:57:27;10.88;;;7.72;;
19621;SDS011;9958;33.196;-97.114;2023-03-01T11:00:10;17.92;;;8.75;;
19621;SDS011;9958;33.196;-97.114;2023-03-01T11:02:50;17.60;;;8.93;;
19621;SDS011;9958;33.196;-97.114;2023-03-01T11:05:29;12.60;;;8.60;;
19621;SDS011;9958;33.196;-97.114;2023-03-01T11:07:59;14.57;;;7.82;;
19621;SDS011;9958;33.196;-97.114;2023-03-01T11:10:30;14.77;;;8.13;;
19621;SDS011;9958;33.196;-97.114;2023-03-01T11:13:06;18.08;;;9.25;;
19621;SDS011;9958;33.196;-97.114;2023-03-01T11:15:36;15.02;;;7.63;;
19621;SDS011;9958;33.196;-97.114;2023-03-01T11:18:04;15.70;;;8.63;;
19621;SDS011;9958;33.196;-97.114;2023-03-01T11:20:45;15.25;;;8.07;;
19621;SDS011;9958;33.196;-97.114;2023-03-01T11:23:15;12.30;;;8.52;;
19621;SDS011;9958;33.196;-97.114;2023-03-01T11:25:46;10.68;;;7.53;;
19621;SDS011;9958;33.196;-97.114;2023-03-01T11:28:22;15.23;;;8.63;;
19621;SDS011;9958;33.196;-97.114;2023-03-01T11:30:53;15.40;;;8.60;;
19621;SDS011;9958;33.196;-97.114;2023-03-01T11:33:30;14.98;;;8.15;;
19621;SDS011;9958;33.196;-97.114;2023-03-01T11:36:05;12.77;;;8.10;;
19621;SDS011;9958;33.196;-97.114;2023-03-01T11:38:40;12.70;;;8.48;;
19621;SDS011;9958;33.196;-97.114;2023-03-01T11:41:13;17.77;;;8.27;;
19621;SDS011;9958;33.196;-97.114;2023-03-01T11:43:46;14.18;;;8.57;;
19621;SDS011;9958;33.196;-97.114;2023-03-01T11:46:32;14.13;;;9.07;;
19621;SDS011;9958;33.196;-97.114;2023-03-01T11:49:35;12.82;;;8.25;;
19621;SDS011;9958;33.196;-97.114;2023-03-01T11:52:29;11.85;;;8.38;;
19621;SDS011;9958;33.196;-97.114;2023-03-01T11:55:20;11.13;;;7.93;;
19621;SDS011;9958;33.196;-97.114;2023-03-01T11:58:08;15.57;;;8.52;;
19621;SDS011;9958;33.196;-97.114;2023-03-01T12:00:54;16.95;;;8.50;;
19621;SDS011;9958;33.196;-97.114;2023-03-01T12:03:41;11.90;;;8.07;;
19621;SDS011;9958;33.196;-97.114;2023-03-01T12:06:29;15.77;;;9.07;;
19621;SDS011;9958;33.196;-97.114;2023-03-01T12:09:16;13.32;;;7.97;;
19621;SDS011;9958;33.196;-97.114;2023-03-01T12:11:57;16.83;;;7.63;;
19621;SDS011;9958;33.196;-97.114;2023-03-01T12:14:58;11.43;;;8.05;;
19621;SDS011;9958;33.196;-97.114;2023-03-01T12:17:51;12.43;;;8.18;;
19621;SDS011;9958;33.196;-97.114;2023-03-01T12:20:34;10.90;;;7.35;;
19621;SDS011;9958;33.196;-97.114;2023-03-01T12:23:16;13.95;;;7.95;;
19621;SDS011;9958;33.196;-97.114;2023-03-01T12:25:56;13.20;;;7.75;;
19621;SDS011;9958;33.196;-97.114;2023-03-01T12:31:35;11.70;;;7.47;;
19621;SDS011;9958;33.196;-97.114;2023-03-01T12:34:24;11.25;;;7.80;;
19621;SDS011;9958;33.196;-97.114;2023-03-01T12:37:19;12.48;;;8.15;;
19621;SDS011;9958;33.196;-97.114;2023-03-01T12:39:57;15.98;;;8.55;;
19621;SDS011;9958;33.196;-97.114;2023-03-01T12:42:55;13.82;;;8.23;;
19621;SDS011;9958;33.196;-97.114;2023-03-01T12:45:35;14.77;;;9.05;;
19621;SDS011;9958;33.196;-97.114;2023-03-01T12:48:23;17.45;;;8.32;;
19621;SDS011;9958;33.196;-97.114;2023-03-01T12:50:58;12.27;;;7.70;;
19621;SDS011;9958;33.196;-97.114;2023-03-01T12:53:31;14.60;;;8.98;;
19621;SDS011;9958;33.196;-97.114;2023-03-01T12:56:04;15.13;;;8.45;;
19621;SDS011;9958;33.196;-97.114;2023-03-01T12:58:35;16.33;;;8.88;;
19621;SDS011;9958;33.196;-97.114;2023-03-01T13:01:13;18.70;;;8.75;;
19621;SDS011;9958;33.196;-97.114;2023-03-01T13:03:59;14.30;;;9.18;;
19621;SDS011;9958;33.196;-97.114;2023-03-01T13:06:44;14.65;;;8.68;;
19621;SDS011;9958;33.196;-97.114;2023-03-01T13:09:24;16.45;;;8.48;;
19621;SDS011;9958;33.196;-97.114;2023-03-01T13:12:00;14.40;;;9.05;;
19621;SDS011;9958;33.196;-97.114;2023-03-01T13:14:43;20.13;;;9.88;;
19621;SDS011;9958;33.196;-97.114;2023-03-01T13:17:32;12.50;;;8.77;;
19621;SDS011;9958;33.196;-97.114;2023-03-01T13:20:16;16.42;;;9.88;;
19621;SDS011;9958;33.196;-97.114;2023-03-01T13:22:46;15.98;;;9.25;;
19621;SDS011;9958;33.196;-97.114;2023-03-01T13:25:16;14.73;;;8.55;;
19621;SDS011;9958;33.196;-97.114;2023-03-01T13:27:46;17.83;;;9.30;;
19621;SDS011;9958;33.196;-97.114;2023-03-01T13:45:20;16.58;;;9.07;;
19621;SDS011;9958;33.196;-97.114;2023-03-01T13:47:54;16.35;;;9.82;;
19621;SDS011;9958;33.196;-97.114;2023-03-01T13:50:25;12.60;;;9.18;;
19621;SDS011;9958;33.196;-97.114;2023-03-01T13:52:58;19.55;;;10.13;;
19621;SDS011;9958;33.196;-97.114;2023-03-01T13:55:32;16.50;;;10.07;;
19621;SDS011;9958;33.196;-97.114;2023-03-01T13:58:13;15.13;;;9.73;;
19621;SDS011;9958;33.196;-97.114;2023-03-01T14:00:46;18.42;;;10.15;;
19621;SDS011;9958;33.196;-97.114;2023-03-01T14:03:15;17.42;;;9.05;;
19621;SDS011;9958;33.196;-97.114;2023-03-01T14:05:56;14.80;;;9.35;;
19621;SDS011;9958;33.196;-97.114;2023-03-01T14:08:29;15.50;;;9.20;;
19621;SDS011;9958;33.196;-97.114;2023-03-01T14:11:04;14.32;;;9.00;;
19621;SDS011;9958;33.196;-97.114;2023-03-01T14:14:01;13.90;;;9.13;;
19621;SDS011;9958;33.196;-97.114;2023-03-01T14:16:46;12.63;;;9.00;;
19621;SDS011;9958;33.196;-97.114;2023-03-01T14:19:21;13.70;;;9.45;;
19621;SDS011;9958;33.196;-97.114;2023-03-01T14:21:58;13.38;;;9.10;;
19621;SDS011;9958;33.196;-97.114;2023-03-01T14:24:30;15.40;;;9.50;;
19621;SDS011;9958;33.196;-97.114;2023-03-01T14:27:01;17.23;;;9.23;;
19621;SDS011;9958;33.196;-97.114;2023-03-01T14:29:35;13.60;;;8.77;;
19621;SDS011;9958;33.196;-97.114;2023-03-01T14:32:08;12.70;;;8.50;;
19621;SDS011;9958;33.196;-97.114;2023-03-01T14:34:45;14.60;;;9.10;;
19621;SDS011;9958;33.196;-97.114;2023-03-01T14:37:21;17.40;;;9.20;;
19621;SDS011;9958;33.196;-97.114;2023-03-01T14:39:53;15.98;;;8.98;;
19621;SDS011;9958;33.196;-97.114;2023-03-01T14:42:22;16.38;;;9.50;;
19621;SDS011;9958;33.196;-97.114;2023-03-01T14:44:52;17.55;;;10.32;;
19621;SDS011;9958;33.196;-97.114;2023-03-01T14:47:25;13.02;;;10.32;;
19621;SDS011;9958;33.196;-97.114;2023-03-01T14:49:57;15.80;;;9.57;;
19621;SDS011;9958;33.196;-97.114;2023-03-01T14:52:30;13.20;;;9.40;;
19621;SDS011;9958;33.196;-97.114;2023-03-01T14:55:04;14.38;;;8.93;;
19621;SDS011;9958;33.196;-97.114;2023-03-01T14:57:34;17.02;;;10.73;;
19621;SDS011;9958;33.196;-97.114;2023-03-01T15:00:03;22.10;;;9.30;;
19621;SDS011;9958;33.196;-97.114;2023-03-01T15:02:34;18.77;;;9.80;;
19621;SDS011;9958;33.196;-97.114;2023-03-01T15:05:05;15.85;;;9.27;;
19621;SDS011;9958;33.196;-97.114;2023-03-01T15:07:36;14.85;;;9.43;;
19621;SDS011;9958;33.196;-97.114;2023-03-01T15:10:14;12.73;;;9.45;;
19621;SDS011;9958;33.196;-97.114;2023-03-01T15:12:46;17.10;;;10.00;;
19621;SDS011;9958;33.196;-97.114;2023-03-01T15:15:34;17.40;;;8.95;;
19621;SDS011;9958;33.196;-97.114;2023-03-01T15:18:13;14.68;;;9.02;;
19621;SDS011;9958;33.196;-97.114;2023-03-01T15:20:44;16.88;;;9.90;;
19621;SDS011;9958;33.196;-97.114;2023-03-01T15:23:16;17.98;;;8.23;;